PILOTS ONLINE: 559    ATC ONLINE: 89

MDPC - Punta Cana International Airport

Location

IATA PUJ
City Punta Cana
Country  Dominican Republic
Latitude 18° 34' 2" N
Longitude 68° 21' 48" W
Elevation 47 ft
Type Large Airport

Runways

09/27 10171 ft / 157 ft

Weather

METAR
2014/07/26 13:00
MDPC 261300Z 11009KT 9999 SCT018 29/25 Q1017
TAF
2014/07/26 12:36
TAF MDPC 261000Z 2612/2712 12010KT 9999 FEW022 SCT300

Outbound flights

Inbound flights